Upper Saint Regis, New York
Current Conditions -  °F | °C
As of 5:51 PM on Monday 24 Nov 2014 (Local Time) from KSLK Reporting Station
Overcast Overcast  
Wind Chill: 13°   Ceiling: 9500
Heat Index: 13°   Visibility: 10mi
Dew Point: 11°   Wind: 14mph
Humidity: 86%   Direction: 220°SW
Pressure: 29.38"   Gusts: 21mph
Location:  44.3663°N, 74.2493°W
Report Text: KSLK 242251Z AUTO 22012G18KT 10SM FEW048 BKN095 OVC110 13/11 A2938 RMK AO2 RAE42 SLP949 P0006 T01280106 $
Loading
Personal Weather Stations






























Interactive Weather Map New forecast layout! Learn more

10-Day Weather Forecast

Advertisements
Track Severe Weather on mobile